Terminal Aerodrome Forecast
Issued by NWS

Home | Current Version | Previous Version | Text Only | Print | Product List | Glossary On
Versions: 1 2 3 4 5 6 7 8 9 10
550
FTUS45 KFGZ 230531
TAFPRC
TAF
KPRC 230531Z 2306/2406 20006KT P6SM SKC
     FM231630 18012G18KT P6SM FEW250
     FM231900 21019G27KT P6SM SCT250=

USA.gov is the U.S. government's official web portal to all federal, state and local government web resources and services.